sensor_id;sensor_type;location;lat;lon;timestamp;pressure;altitude;pressure_sealevel;temperature;humidity
55289;BME280;41154;45.394;5.734;2023-07-13T00:00:46;97069.56;;;20.14;100.00
55289;BME280;41154;45.394;5.734;2023-07-13T00:03:12;97069.88;;;20.13;100.00
55289;BME280;41154;45.394;5.734;2023-07-13T00:05:39;97065.81;;;20.01;100.00
55289;BME280;41154;45.394;5.734;2023-07-13T00:08:07;97059.31;;;19.88;100.00
55289;BME280;41154;45.394;5.734;2023-07-13T00:10:33;97060.94;;;19.75;100.00
55289;BME280;41154;45.394;5.734;2023-07-13T00:12:59;97060.03;;;19.80;100.00
55289;BME280;41154;45.394;5.734;2023-07-13T00:15:26;97060.34;;;19.79;100.00
55289;BME280;41154;45.394;5.734;2023-07-13T00:17:54;97060.25;;;19.84;100.00
55289;BME280;41154;45.394;5.734;2023-07-13T00:20:22;97055.75;;;19.65;100.00
55289;BME280;41154;45.394;5.734;2023-07-13T00:22:48;97060.19;;;19.61;100.00
55289;BME280;41154;45.394;5.734;2023-07-13T00:25:14;97060.94;;;19.75;100.00
55289;BME280;41154;45.394;5.734;2023-07-13T00:27:42;97059.25;;;19.80;100.00
55289;BME280;41154;45.394;5.734;2023-07-13T00:30:09;97069.34;;;19.79;100.00
55289;BME280;41154;45.394;5.734;2023-07-13T00:32:35;97062.16;;;20.06;100.00
55289;BME280;41154;45.394;5.734;2023-07-13T00:35:02;97063.75;;;20.29;100.00
55289;BME280;41154;45.394;5.734;2023-07-13T00:37:30;97062.72;;;19.94;100.00
55289;BME280;41154;45.394;5.734;2023-07-13T00:39:57;97060.50;;;19.60;100.00
55289;BME280;41154;45.394;5.734;2023-07-13T00:42:23;97063.78;;;19.70;100.00
55289;BME280;41154;45.394;5.734;2023-07-13T00:47:31;97073.34;;;19.68;100.00
55289;BME280;41154;45.394;5.734;2023-07-13T00:49:57;97076.72;;;19.51;100.00
55289;BME280;41154;45.394;5.734;2023-07-13T00:52:26;97073.34;;;19.31;100.00
55289;BME280;41154;45.394;5.734;2023-07-13T00:54:54;97068.66;;;19.23;100.00
55289;BME280;41154;45.394;5.734;2023-07-13T00:57:21;97063.53;;;19.08;100.00
55289;BME280;41154;45.394;5.734;2023-07-13T00:59:54;97069.75;;;19.22;100.00
55289;BME280;41154;45.394;5.734;2023-07-13T01:02:21;97069.69;;;19.50;100.00
55289;BME280;41154;45.394;5.734;2023-07-13T01:04:48;97061.38;;;19.32;100.00
55289;BME280;41154;45.394;5.734;2023-07-13T01:07:14;97059.91;;;19.12;100.00
55289;BME280;41154;45.394;5.734;2023-07-13T01:09:40;97062.09;;;18.96;100.00
55289;BME280;41154;45.394;5.734;2023-07-13T01:12:06;97063.72;;;18.97;100.00
55289;BME280;41154;45.394;5.734;2023-07-13T01:14:32;97064.94;;;19.05;100.00
55289;BME280;41154;45.394;5.734;2023-07-13T01:16:58;97066.94;;;18.99;100.00
55289;BME280;41154;45.394;5.734;2023-07-13T01:19:38;97071.16;;;19.06;100.00
55289;BME280;41154;45.394;5.734;2023-07-13T01:22:12;97073.84;;;19.33;100.00
55289;BME280;41154;45.394;5.734;2023-07-13T01:24:40;97062.81;;;19.02;100.00
55289;BME280;41154;45.394;5.734;2023-07-13T01:27:08;97072.00;;;18.92;100.00
55289;BME280;41154;45.394;5.734;2023-07-13T01:29:37;97068.78;;;18.90;100.00
55289;BME280;41154;45.394;5.734;2023-07-13T01:32:15;97069.28;;;19.06;100.00
55289;BME280;41154;45.394;5.734;2023-07-13T01:34:42;97084.06;;;19.14;100.00
55289;BME280;41154;45.394;5.734;2023-07-13T01:37:10;97080.44;;;19.04;100.00
55289;BME280;41154;45.394;5.734;2023-07-13T01:39:37;97082.56;;;19.08;100.00
55289;BME280;41154;45.394;5.734;2023-07-13T01:42:03;97084.25;;;19.03;100.00
55289;BME280;41154;45.394;5.734;2023-07-13T01:44:29;97083.25;;;19.13;100.00
55289;BME280;41154;45.394;5.734;2023-07-13T01:46:57;97089.22;;;19.52;100.00
55289;BME280;41154;45.394;5.734;2023-07-13T01:49:23;97088.41;;;19.65;100.00
55289;BME280;41154;45.394;5.734;2023-07-13T01:51:48;97090.44;;;19.60;100.00
55289;BME280;41154;45.394;5.734;2023-07-13T01:54:14;97085.09;;;19.54;100.00
55289;BME280;41154;45.394;5.734;2023-07-13T01:56:40;97095.47;;;19.52;100.00
55289;BME280;41154;45.394;5.734;2023-07-13T01:59:08;97090.28;;;19.42;100.00
55289;BME280;41154;45.394;5.734;2023-07-13T02:01:34;97092.28;;;19.36;100.00
55289;BME280;41154;45.394;5.734;2023-07-13T02:03:59;97093.44;;;19.58;100.00
55289;BME280;41154;45.394;5.734;2023-07-13T02:06:28;97091.75;;;19.62;100.00
55289;BME280;41154;45.394;5.734;2023-07-13T02:08:53;97092.03;;;19.61;100.00
55289;BME280;41154;45.394;5.734;2023-07-13T02:11:19;97095.75;;;19.65;100.00
55289;BME280;41154;45.394;5.734;2023-07-13T02:13:45;97086.22;;;19.39;100.00
55289;BME280;41154;45.394;5.734;2023-07-13T02:16:11;97089.09;;;19.07;100.00
55289;BME280;41154;45.394;5.734;2023-07-13T02:18:36;97084.75;;;19.06;100.00
55289;BME280;41154;45.394;5.734;2023-07-13T02:21:03;97090.91;;;19.11;100.00
55289;BME280;41154;45.394;5.734;2023-07-13T02:23:29;97079.22;;;19.11;100.00
55289;BME280;41154;45.394;5.734;2023-07-13T02:25:59;97089.88;;;19.21;100.00
55289;BME280;41154;45.394;5.734;2023-07-13T02:28:24;97089.28;;;19.24;100.00
55289;BME280;41154;45.394;5.734;2023-07-13T02:30:50;97086.22;;;19.39;100.00
55289;BME280;41154;45.394;5.734;2023-07-13T02:33:17;97085.16;;;19.27;100.00
55289;BME280;41154;45.394;5.734;2023-07-13T02:35:43;97083.47;;;19.03;100.00
55289;BME280;41154;45.394;5.734;2023-07-13T02:38:08;97077.63;;;19.10;100.00
55289;BME280;41154;45.394;5.734;2023-07-13T02:40:34;97076.81;;;18.95;100.00
55289;BME280;41154;45.394;5.734;2023-07-13T02:43:01;97081.34;;;19.14;100.00
55289;BME280;41154;45.394;5.734;2023-07-13T02:45:30;97080.63;;;18.94;100.00
55289;BME280;41154;45.394;5.734;2023-07-13T02:47:56;97085.06;;;19.04;100.00
55289;BME280;41154;45.394;5.734;2023-07-13T02:50:22;97080.44;;;19.04;100.00
55289;BME280;41154;45.394;5.734;2023-07-13T02:52:48;97084.19;;;18.95;100.00
55289;BME280;41154;45.394;5.734;2023-07-13T02:55:14;97082.88;;;18.92;100.00
55289;BME280;41154;45.394;5.734;2023-07-13T02:57:39;97081.97;;;18.97;100.00
55289;BME280;41154;45.394;5.734;2023-07-13T03:00:06;97077.44;;;18.92;100.00
55289;BME280;41154;45.394;5.734;2023-07-13T03:02:35;97082.75;;;18.97;100.00
55289;BME280;41154;45.394;5.734;2023-07-13T03:05:01;97079.53;;;18.95;100.00
55289;BME280;41154;45.394;5.734;2023-07-13T03:07:27;97083.91;;;18.77;100.00
55289;BME280;41154;45.394;5.734;2023-07-13T03:09:57;97087.84;;;18.71;100.00
55289;BME280;41154;45.394;5.734;2023-07-13T03:12:26;97087.53;;;18.73;100.00
55289;BME280;41154;45.394;5.734;2023-07-13T03:14:52;97087.47;;;18.78;100.00
55289;BME280;41154;45.394;5.734;2023-07-13T03:17:18;97093.88;;;18.82;100.00
55289;BME280;41154;45.394;5.734;2023-07-13T03:19:44;97101.16;;;18.86;100.00
55289;BME280;41154;45.394;5.734;2023-07-13T03:22:11;97101.78;;;18.97;100.00
55289;BME280;41154;45.394;5.734;2023-07-13T03:24:38;97106.13;;;18.84;100.00
55289;BME280;41154;45.394;5.734;2023-07-13T03:27:05;97104.91;;;18.91;100.00
55289;BME280;41154;45.394;5.734;2023-07-13T03:29:34;97108.94;;;18.93;100.00
55289;BME280;41154;45.394;5.734;2023-07-13T03:32:01;97120.69;;;18.75;100.00
55289;BME280;41154;45.394;5.734;2023-07-13T03:34:27;97118.31;;;18.87;100.00
55289;BME280;41154;45.394;5.734;2023-07-13T03:36:56;97122.41;;;18.84;100.00
55289;BME280;41154;45.394;5.734;2023-07-13T03:39:22;97127.56;;;19.14;100.00
55289;BME280;41154;45.394;5.734;2023-07-13T03:41:52;97130.38;;;19.22;100.00
55289;BME280;41154;45.394;5.734;2023-07-13T03:44:19;97137.44;;;19.24;100.00
55289;BME280;41154;45.394;5.734;2023-07-13T03:46:48;97139.75;;;18.89;100.00
55289;BME280;41154;45.394;5.734;2023-07-13T03:49:15;97130.69;;;18.93;100.00
55289;BME280;41154;45.394;5.734;2023-07-13T03:51:41;97141.72;;;18.83;100.00
55289;BME280;41154;45.394;5.734;2023-07-13T03:54:07;97143.50;;;18.74;100.00
55289;BME280;41154;45.394;5.734;2023-07-13T03:56:32;97138.50;;;18.81;100.00
55289;BME280;41154;45.394;5.734;2023-07-13T03:59:01;97138.53;;;19.09;100.00
55289;BME280;41154;45.394;5.734;2023-07-13T04:01:29;97152.66;;;19.11;100.00
55289;BME280;41154;45.394;5.734;2023-07-13T04:03:56;97153.44;;;19.11;100.00
55289;BME280;41154;45.394;5.734;2023-07-13T04:06:27;97154.94;;;19.03;100.00
55289;BME280;41154;45.394;5.734;2023-07-13T04:08:57;97161.59;;;19.11;100.00
55289;BME280;41154;45.394;5.734;2023-07-13T04:11:25;97169.78;;;18.78;100.00
55289;BME280;41154;45.394;5.734;2023-07-13T04:13:51;97170.47;;;18.70;100.00
55289;BME280;41154;45.394;5.734;2023-07-13T04:16:18;97177.41;;;18.62;100.00
55289;BME280;41154;45.394;5.734;2023-07-13T04:18:45;97169.31;;;18.57;100.00
55289;BME280;41154;45.394;5.734;2023-07-13T04:21:12;97182.78;;;18.48;100.00
55289;BME280;41154;45.394;5.734;2023-07-13T04:23:39;97196.81;;;18.37;100.00
55289;BME280;41154;45.394;5.734;2023-07-13T04:26:05;97198.16;;;18.39;100.00
55289;BME280;41154;45.394;5.734;2023-07-13T04:28:31;97197.41;;;18.33;100.00
55289;BME280;41154;45.394;5.734;2023-07-13T04:30:57;97211.75;;;18.20;100.00
55289;BME280;41154;45.394;5.734;2023-07-13T04:33:23;97225.91;;;18.17;100.00
55289;BME280;41154;45.394;5.734;2023-07-13T04:35:51;97227.50;;;18.18;100.00
55289;BME280;41154;45.394;5.734;2023-07-13T04:38:21;97238.94;;;18.15;100.00
55289;BME280;41154;45.394;5.734;2023-07-13T04:40:47;97241.00;;;18.04;100.00
55289;BME280;41154;45.394;5.734;2023-07-13T04:43:13;97255.63;;;18.08;100.00
55289;BME280;41154;45.394;5.734;2023-07-13T04:45:39;97249.16;;;18.04;100.00
55289;BME280;41154;45.394;5.734;2023-07-13T04:48:05;97258.03;;;18.10;100.00
55289;BME280;41154;45.394;5.734;2023-07-13T04:50:31;97264.13;;;18.02;100.00
55289;BME280;41154;45.394;5.734;2023-07-13T04:52:57;97259.28;;;18.18;100.00
55289;BME280;41154;45.394;5.734;2023-07-13T04:55:24;97258.13;;;18.05;100.00
55289;BME280;41154;45.394;5.734;2023-07-13T04:57:49;97269.06;;;18.19;100.00
55289;BME280;41154;45.394;5.734;2023-07-13T05:00:16;97268.81;;;18.15;100.00
55289;BME280;41154;45.394;5.734;2023-07-13T05:02:44;97267.13;;;18.00;100.00
55289;BME280;41154;45.394;5.734;2023-07-13T05:05:11;97265.22;;;17.76;100.00
55289;BME280;41154;45.394;5.734;2023-07-13T05:07:37;97270.66;;;18.01;100.00
55289;BME280;41154;45.394;5.734;2023-07-13T05:10:03;97266.59;;;17.74;100.00
55289;BME280;41154;45.394;5.734;2023-07-13T05:12:31;97264.06;;;17.58;100.00
55289;BME280;41154;45.394;5.734;2023-07-13T05:14:58;97277.94;;;17.57;100.00
55289;BME280;41154;45.394;5.734;2023-07-13T05:17:24;97270.53;;;17.63;100.00
55289;BME280;41154;45.394;5.734;2023-07-13T05:19:50;97271.34;;;17.87;100.00
55289;BME280;41154;45.394;5.734;2023-07-13T05:22:15;97274.69;;;17.55;100.00
55289;BME280;41154;45.394;5.734;2023-07-13T05:24:41;97284.50;;;17.51;100.00
55289;BME280;41154;45.394;5.734;2023-07-13T05:27:07;97284.09;;;17.63;100.00
55289;BME280;41154;45.394;5.734;2023-07-13T05:29:33;97287.50;;;17.98;100.00
55289;BME280;41154;45.394;5.734;2023-07-13T05:31:59;97286.09;;;17.76;100.00
55289;BME280;41154;45.394;5.734;2023-07-13T05:34:24;97287.50;;;17.98;100.00
55289;BME280;41154;45.394;5.734;2023-07-13T05:36:50;97284.94;;;17.82;100.00
55289;BME280;41154;45.394;5.734;2023-07-13T05:39:16;97281.50;;;17.52;100.00
55289;BME280;41154;45.394;5.734;2023-07-13T05:41:42;97283.63;;;17.55;100.00
55289;BME280;41154;45.394;5.734;2023-07-13T05:44:08;97288.56;;;17.53;100.00
55289;BME280;41154;45.394;5.734;2023-07-13T05:46:34;97292.00;;;17.59;100.00
55289;BME280;41154;45.394;5.734;2023-07-13T05:48:59;97289.47;;;17.68;100.00
55289;BME280;41154;45.394;5.734;2023-07-13T05:51:25;97296.94;;;17.81;100.00
55289;BME280;41154;45.394;5.734;2023-07-13T05:53:51;97302.16;;;17.96;100.00
55289;BME280;41154;45.394;5.734;2023-07-13T05:56:17;97294.50;;;18.04;100.00
55289;BME280;41154;45.394;5.734;2023-07-13T05:58:42;97299.44;;;17.96;100.00
55289;BME280;41154;45.394;5.734;2023-07-13T06:01:13;97298.09;;;18.18;100.00
55289;BME280;41154;45.394;5.734;2023-07-13T06:03:40;97292.75;;;18.13;100.00
55289;BME280;41154;45.394;5.734;2023-07-13T06:06:07;97295.75;;;18.11;100.00
55289;BME280;41154;45.394;5.734;2023-07-13T06:08:34;97290.91;;;18.08;100.00
55289;BME280;41154;45.394;5.734;2023-07-13T06:11:26;97297.03;;;17.95;100.00
55289;BME280;41154;45.394;5.734;2023-07-13T06:13:53;97287.31;;;18.13;100.00
55289;BME280;41154;45.394;5.734;2023-07-13T06:16:19;97288.06;;;18.19;100.00
55289;BME280;41154;45.394;5.734;2023-07-13T06:18:45;97292.28;;;18.06;100.00
55289;BME280;41154;45.394;5.734;2023-07-13T06:21:14;97282.75;;;18.08;100.00
55289;BME280;41154;45.394;5.734;2023-07-13T06:23:41;97291.13;;;17.88;100.00
55289;BME280;41154;45.394;5.734;2023-07-13T06:26:07;97289.00;;;17.85;100.00
55289;BME280;41154;45.394;5.734;2023-07-13T06:28:34;97294.13;;;17.86;100.00
55289;BME280;41154;45.394;5.734;2023-07-13T06:31:00;97289.47;;;17.92;100.00
55289;BME280;41154;45.394;5.734;2023-07-13T06:33:26;97293.06;;;17.87;100.00
55289;BME280;41154;45.394;5.734;2023-07-13T06:35:52;97299.16;;;17.74;100.00
55289;BME280;41154;45.394;5.734;2023-07-13T06:38:20;97290.03;;;17.65;100.00
55289;BME280;41154;45.394;5.734;2023-07-13T06:40:46;97296.94;;;17.81;100.00
55289;BME280;41154;45.394;5.734;2023-07-13T06:43:12;97297.63;;;17.92;100.00
55289;BME280;41154;45.394;5.734;2023-07-13T06:45:46;97300.97;;;18.46;100.00
55289;BME280;41154;45.394;5.734;2023-07-13T06:48:15;97298.53;;;18.82;100.00
55289;BME280;41154;45.394;5.734;2023-07-13T06:50:42;97299.34;;;18.45;100.00
55289;BME280;41154;45.394;5.734;2023-07-13T06:53:08;97294.09;;;19.06;100.00
55289;BME280;41154;45.394;5.734;2023-07-13T06:55:34;97291.06;;;18.93;100.00
55289;BME280;41154;45.394;5.734;2023-07-13T06:58:00;97299.22;;;19.26;100.00
55289;BME280;41154;45.394;5.734;2023-07-13T07:00:25;97296.53;;;19.07;100.00
55289;BME280;41154;45.394;5.734;2023-07-13T07:02:51;97299.06;;;18.46;100.00
55289;BME280;41154;45.394;5.734;2023-07-13T07:05:17;97298.56;;;18.44;100.00
55289;BME280;41154;45.394;5.734;2023-07-13T07:07:43;97295.53;;;18.84;100.00
55289;BME280;41154;45.394;5.734;2023-07-13T07:10:08;97298.09;;;19.41;100.00
55289;BME280;41154;45.394;5.734;2023-07-13T07:12:34;97293.38;;;19.47;100.00
55289;BME280;41154;45.394;5.734;2023-07-13T07:15:00;97292.06;;;19.44;100.00
55289;BME280;41154;45.394;5.734;2023-07-13T07:17:26;97297.63;;;19.39;100.00
55289;BME280;41154;45.394;5.734;2023-07-13T07:19:52;97294.09;;;19.52;100.00
55289;BME280;41154;45.394;5.734;2023-07-13T07:22:20;97301.81;;;19.31;100.00
55289;BME280;41154;45.394;5.734;2023-07-13T07:24:46;97298.22;;;19.50;100.00
55289;BME280;41154;45.394;5.734;2023-07-13T07:27:12;97298.59;;;19.29;100.00
55289;BME280;41154;45.394;5.734;2023-07-13T07:29:38;97297.16;;;19.18;100.00
55289;BME280;41154;45.394;5.734;2023-07-13T07:32:04;97302.69;;;19.73;100.00
55289;BME280;41154;45.394;5.734;2023-07-13T07:34:30;97316.75;;;20.81;100.00
55289;BME280;41154;45.394;5.734;2023-07-13T07:36:59;97326.94;;;22.15;100.00
55289;BME280;41154;45.394;5.734;2023-07-13T07:39:26;97328.38;;;23.14;100.00
55289;BME280;41154;45.394;5.734;2023-07-13T07:41:52;97323.25;;;23.60;100.00
55289;BME280;41154;45.394;5.734;2023-07-13T07:44:18;97332.22;;;24.88;99.35
55289;BME280;41154;45.394;5.734;2023-07-13T07:46:44;97330.53;;;26.09;92.48
55289;BME280;41154;45.394;5.734;2023-07-13T07:49:09;97320.19;;;27.24;80.01
55289;BME280;41154;45.394;5.734;2023-07-13T07:51:37;97317.44;;;27.24;75.14
55289;BME280;41154;45.394;5.734;2023-07-13T07:54:04;97321.25;;;27.64;74.18
55289;BME280;41154;45.394;5.734;2023-07-13T07:56:31;97314.53;;;28.80;67.46
55289;BME280;41154;45.394;5.734;2023-07-13T07:58:57;97325.69;;;26.43;73.46
55289;BME280;41154;45.394;5.734;2023-07-13T08:01:23;97323.91;;;26.75;78.63
55289;BME280;41154;45.394;5.734;2023-07-13T08:03:49;97319.88;;;26.19;82.63
55289;BME280;41154;45.394;5.734;2023-07-13T08:06:15;97311.53;;;28.89;67.50
55289;BME280;41154;45.394;5.734;2023-07-13T08:08:41;97315.50;;;28.52;66.13
55289;BME280;41154;45.394;5.734;2023-07-13T08:11:08;97304.38;;;29.89;64.43
55289;BME280;41154;45.394;5.734;2023-07-13T08:13:35;97305.41;;;29.81;63.07
55289;BME280;41154;45.394;5.734;2023-07-13T08:16:01;97299.44;;;30.02;61.66
55289;BME280;41154;45.394;5.734;2023-07-13T08:18:27;97306.22;;;30.35;61.14
55289;BME280;41154;45.394;5.734;2023-07-13T08:20:55;97314.16;;;29.01;65.33
55289;BME280;41154;45.394;5.734;2023-07-13T08:23:25;97299.31;;;30.21;61.19
55289;BME280;41154;45.394;5.734;2023-07-13T08:25:54;97308.94;;;30.88;57.89
55289;BME280;41154;45.394;5.734;2023-07-13T08:28:23;97300.31;;;30.36;60.05
55289;BME280;41154;45.394;5.734;2023-07-13T08:30:49;97297.25;;;29.68;62.19
55289;BME280;41154;45.394;5.734;2023-07-13T08:33:20;97306.91;;;28.22;65.57
55289;BME280;41154;45.394;5.734;2023-07-13T08:35:50;97305.25;;;29.73;59.52
55289;BME280;41154;45.394;5.734;2023-07-13T08:38:17;97313.78;;;29.02;60.55
55289;BME280;41154;45.394;5.734;2023-07-13T08:40:43;97295.66;;;29.44;59.38
55289;BME280;41154;45.394;5.734;2023-07-13T08:43:18;97292.94;;;29.05;60.99
55289;BME280;41154;45.394;5.734;2023-07-13T08:45:48;97298.09;;;28.87;60.73
55289;BME280;41154;45.394;5.734;2023-07-13T08:48:25;97301.53;;;26.24;66.73
55289;BME280;41154;45.394;5.734;2023-07-13T08:53:49;97293.63;;;29.41;58.78
55289;BME280;41154;45.394;5.734;2023-07-13T08:56:22;97303.25;;;29.70;56.82
55289;BME280;41154;45.394;5.734;2023-07-13T08:58:51;97311.56;;;30.77;53.65
55289;BME280;41154;45.394;5.734;2023-07-13T09:04:44;97313.94;;;29.29;55.73
55289;BME280;41154;45.394;5.734;2023-07-13T09:07:19;97306.59;;;28.07;58.88
55289;BME280;41154;45.394;5.734;2023-07-13T09:12:44;97300.00;;;25.64;69.61
55289;BME280;41154;45.394;5.734;2023-07-13T09:17:50;97308.88;;;26.32;68.45
55289;BME280;41154;45.394;5.734;2023-07-13T09:20:29;97305.22;;;27.37;66.68
55289;BME280;41154;45.394;5.734;2023-07-13T09:23:01;97312.03;;;26.59;66.52
55289;BME280;41154;45.394;5.734;2023-07-13T09:25:34;97305.78;;;27.75;64.17
55289;BME280;41154;45.394;5.734;2023-07-13T09:28:12;97308.88;;;27.13;63.39
55289;BME280;41154;45.394;5.734;2023-07-13T09:31:17;97311.19;;;29.10;60.10
55289;BME280;41154;45.394;5.734;2023-07-13T09:33:46;97324.97;;;26.99;62.79
55289;BME280;41154;45.394;5.734;2023-07-13T09:36:25;97325.78;;;27.27;64.65
55289;BME280;41154;45.394;5.734;2023-07-13T09:39:05;97323.28;;;26.94;68.09
55289;BME280;41154;45.394;5.734;2023-07-13T09:44:34;97332.13;;;28.04;63.13
55289;BME280;41154;45.394;5.734;2023-07-13T09:47:01;97335.34;;;26.12;69.33
55289;BME280;41154;45.394;5.734;2023-07-13T09:50:08;97338.34;;;27.69;64.07
55289;BME280;41154;45.394;5.734;2023-07-13T09:52:44;97340.91;;;26.65;67.10
55289;BME280;41154;45.394;5.734;2023-07-13T09:55:36;97342.19;;;26.96;64.55
55289;BME280;41154;45.394;5.734;2023-07-13T10:01:52;97343.47;;;26.21;69.78
55289;BME280;41154;45.394;5.734;2023-07-13T10:04:20;97347.91;;;26.75;69.94
55289;BME280;41154;45.394;5.734;2023-07-13T10:06:46;97337.53;;;25.27;74.96
55289;BME280;41154;45.394;5.734;2023-07-13T10:09:16;97342.56;;;26.04;73.99
55289;BME280;41154;45.394;5.734;2023-07-13T10:11:45;97332.84;;;25.15;75.73
55289;BME280;41154;45.394;5.734;2023-07-13T10:14:20;97342.09;;;26.14;72.00
55289;BME280;41154;45.394;5.734;2023-07-13T10:16:50;97341.88;;;26.32;72.44
55289;BME280;41154;45.394;5.734;2023-07-13T10:19:25;97340.97;;;25.24;72.30
55289;BME280;41154;45.394;5.734;2023-07-13T10:22:23;97338.66;;;26.05;69.10
55289;BME280;41154;45.394;5.734;2023-07-13T10:24:51;97349.53;;;26.01;69.31
55289;BME280;41154;45.394;5.734;2023-07-13T10:27:29;97353.91;;;24.30;77.04
55289;BME280;41154;45.394;5.734;2023-07-13T10:30:17;97347.34;;;24.94;73.67
55289;BME280;41154;45.394;5.734;2023-07-13T10:32:47;97345.31;;;26.04;67.83
55289;BME280;41154;45.394;5.734;2023-07-13T10:35:15;97347.38;;;26.32;70.04
55289;BME280;41154;45.394;5.734;2023-07-13T10:38:06;97349.09;;;25.54;71.72
55289;BME280;41154;45.394;5.734;2023-07-13T10:43:12;97353.91;;;24.00;78.08
55289;BME280;41154;45.394;5.734;2023-07-13T10:45:40;97350.13;;;24.73;73.82
55289;BME280;41154;45.394;5.734;2023-07-13T10:48:09;97341.63;;;24.36;73.96
55289;BME280;41154;45.394;5.734;2023-07-13T10:50:40;97350.47;;;24.12;75.84
55289;BME280;41154;45.394;5.734;2023-07-13T10:53:38;97347.75;;;24.12;74.50
55289;BME280;41154;45.394;5.734;2023-07-13T10:58:43;97344.44;;;24.79;73.65
55289;BME280;41154;45.394;5.734;2023-07-13T11:06:13;97335.38;;;24.27;75.05
55289;BME280;41154;45.394;5.734;2023-07-13T11:13:57;97312.47;;;24.32;71.64
55289;BME280;41154;45.394;5.734;2023-07-13T11:18:52;97302.19;;;24.50;73.00
55289;BME280;41154;45.394;5.734;2023-07-13T11:21:20;97308.13;;;24.01;74.10
55289;BME280;41154;45.394;5.734;2023-07-13T11:31:51;97307.47;;;24.55;73.29
55289;BME280;41154;45.394;5.734;2023-07-13T11:34:23;97309.88;;;24.99;71.37
55289;BME280;41154;45.394;5.734;2023-07-13T11:36:52;97308.84;;;23.89;73.13
55289;BME280;41154;45.394;5.734;2023-07-13T11:39:21;97304.63;;;23.92;74.35
55289;BME280;41154;45.394;5.734;2023-07-13T11:42:10;97306.84;;;24.28;70.88
55289;BME280;41154;45.394;5.734;2023-07-13T11:44:43;97290.25;;;24.25;70.09
55289;BME280;41154;45.394;5.734;2023-07-13T11:50:30;97273.91;;;24.58;72.25
55289;BME280;41154;45.394;5.734;2023-07-13T11:52:58;97263.06;;;23.90;69.95
55289;BME280;41154;45.394;5.734;2023-07-13T11:55:24;97277.16;;;24.30;67.76
55289;BME280;41154;45.394;5.734;2023-07-13T12:04:57;97278.97;;;24.47;74.12
55289;BME280;41154;45.394;5.734;2023-07-13T12:10:47;97274.03;;;24.40;66.61
55289;BME280;41154;45.394;5.734;2023-07-13T12:13:13;97268.06;;;24.38;63.25
55289;BME280;41154;45.394;5.734;2023-07-13T12:22:34;97258.25;;;24.37;65.28
55289;BME280;41154;45.394;5.734;2023-07-13T12:25:00;97258.91;;;24.34;65.16
55289;BME280;41154;45.394;5.734;2023-07-13T12:34:55;97238.50;;;24.02;61.01
55289;BME280;41154;45.394;5.734;2023-07-13T12:37:43;97245.13;;;24.22;61.00
55289;BME280;41154;45.394;5.734;2023-07-13T12:40:15;97245.75;;;23.98;55.79
55289;BME280;41154;45.394;5.734;2023-07-13T12:42:42;97249.81;;;23.92;60.74
55289;BME280;41154;45.394;5.734;2023-07-13T12:51:27;97246.06;;;24.26;58.32
55289;BME280;41154;45.394;5.734;2023-07-13T12:57:50;97234.63;;;24.24;55.79
55289;BME280;41154;45.394;5.734;2023-07-13T13:00:37;97236.56;;;24.02;54.27
55289;BME280;41154;45.394;5.734;2023-07-13T13:03:24;97249.34;;;24.40;57.66
55289;BME280;41154;45.394;5.734;2023-07-13T13:09:34;97240.28;;;24.82;52.23
55289;BME280;41154;45.394;5.734;2023-07-13T13:12:00;97247.13;;;24.34;53.22
55289;BME280;41154;45.394;5.734;2023-07-13T13:14:26;97245.72;;;24.57;51.81
55289;BME280;41154;45.394;5.734;2023-07-13T13:17:19;97246.00;;;24.56;52.67
55289;BME280;41154;45.394;5.734;2023-07-13T13:19:45;97245.28;;;24.68;50.75
55289;BME280;41154;45.394;5.734;2023-07-13T13:22:11;97240.63;;;24.68;52.99
55289;BME280;41154;45.394;5.734;2023-07-13T13:24:38;97243.22;;;24.44;55.03
55289;BME280;41154;45.394;5.734;2023-07-13T13:30:51;97240.50;;;24.77;52.66
55289;BME280;41154;45.394;5.734;2023-07-13T13:37:28;97246.59;;;24.83;52.23
55289;BME280;41154;45.394;5.734;2023-07-13T13:39:54;97246.59;;;24.83;51.77
55289;BME280;41154;45.394;5.734;2023-07-13T13:42:20;97248.19;;;24.84;53.91
55289;BME280;41154;45.394;5.734;2023-07-13T13:44:50;97247.56;;;24.99;50.57
55289;BME280;41154;45.394;5.734;2023-07-13T13:47:31;97251.28;;;24.82;51.24
55289;BME280;41154;45.394;5.734;2023-07-13T13:49:58;97241.28;;;24.99;50.54
55289;BME280;41154;45.394;5.734;2023-07-13T13:52:25;97233.38;;;24.64;51.33
55289;BME280;41154;45.394;5.734;2023-07-13T13:54:51;97236.63;;;25.11;52.75
55289;BME280;41154;45.394;5.734;2023-07-13T13:57:24;97237.06;;;25.01;53.23
55289;BME280;41154;45.394;5.734;2023-07-13T13:59:51;97237.25;;;24.63;53.70
55289;BME280;41154;45.394;5.734;2023-07-13T14:02:27;97234.03;;;25.27;54.91
55289;BME280;41154;45.394;5.734;2023-07-13T14:15:42;97233.16;;;24.48;56.61
55289;BME280;41154;45.394;5.734;2023-07-13T14:18:09;97231.06;;;24.87;55.90
55289;BME280;41154;45.394;5.734;2023-07-13T14:20:35;97240.16;;;25.00;56.27
55289;BME280;41154;45.394;5.734;2023-07-13T14:23:01;97236.03;;;24.72;56.96
55289;BME280;41154;45.394;5.734;2023-07-13T14:25:27;97230.97;;;24.96;53.96
55289;BME280;41154;45.394;5.734;2023-07-13T14:27:57;97234.69;;;24.79;55.35
55289;BME280;41154;45.394;5.734;2023-07-13T14:30:29;97232.47;;;25.05;53.71
55289;BME280;41154;45.394;5.734;2023-07-13T14:32:55;97224.88;;;24.90;53.05
55289;BME280;41154;45.394;5.734;2023-07-13T14:35:22;97227.28;;;24.91;53.33
55289;BME280;41154;45.394;5.734;2023-07-13T14:37:49;97228.84;;;25.14;51.66
55289;BME280;41154;45.394;5.734;2023-07-13T14:40:21;97224.59;;;25.04;54.57
55289;BME280;41154;45.394;5.734;2023-07-13T14:42:47;97232.78;;;24.91;52.14
55289;BME280;41154;45.394;5.734;2023-07-13T14:45:18;97225.41;;;25.04;51.28
55289;BME280;41154;45.394;5.734;2023-07-13T14:47:44;97229.22;;;25.24;50.49
55289;BME280;41154;45.394;5.734;2023-07-13T14:52:41;97230.44;;;25.15;49.92